createdAt,value
2022-08-27T00:00:48.149Z,100.00
2022-08-27T00:03:15.550Z,100.00
2022-08-27T00:05:43.370Z,100.00
2022-08-27T00:08:12.711Z,100.00
2022-08-27T00:10:40.771Z,100.00
2022-08-27T00:13:08.128Z,100.00
2022-08-27T00:15:35.112Z,100.00
2022-08-27T00:18:01.936Z,100.00
2022-08-27T00:20:28.710Z,100.00
2022-08-27T00:22:55.874Z,100.00
2022-08-27T00:25:23.392Z,100.00
2022-08-27T00:27:50.835Z,100.00
2022-08-27T00:30:21.050Z,100.00
2022-08-27T00:32:48.348Z,100.00
2022-08-27T00:35:16.765Z,100.00
2022-08-27T00:37:44.602Z,100.00
2022-08-27T00:40:16.677Z,100.00
2022-08-27T00:42:45.943Z,100.00
2022-08-27T00:45:15.461Z,100.00
2022-08-27T00:47:50.420Z,100.00
2022-08-27T00:50:23.387Z,100.00
2022-08-27T00:52:56.739Z,100.00
2022-08-27T00:55:33.285Z,100.00
2022-08-27T00:58:09.381Z,100.00
2022-08-27T01:00:37.321Z,100.00
2022-08-27T01:03:04.863Z,100.00
2022-08-27T01:05:33.751Z,100.00
2022-08-27T01:08:06.711Z,100.00
2022-08-27T01:10:34.289Z,100.00
2022-08-27T01:13:01.574Z,100.00
2022-08-27T01:15:30.543Z,100.00
2022-08-27T01:17:58.633Z,100.00
2022-08-27T01:20:35.677Z,100.00
2022-08-27T01:23:14.472Z,100.00
2022-08-27T01:25:43.588Z,100.00
2022-08-27T01:28:12.452Z,100.00
2022-08-27T01:30:40.257Z,100.00
2022-08-27T01:33:14.604Z,100.00
2022-08-27T01:35:43.861Z,100.00
2022-08-27T01:38:29.933Z,100.00
2022-08-27T01:40:57.845Z,100.00
2022-08-27T01:43:24.992Z,100.00
2022-08-27T01:45:52.223Z,100.00
2022-08-27T01:48:21.638Z,100.00
2022-08-27T01:50:49.697Z,100.00
2022-08-27T01:53:23.090Z,100.00
2022-08-27T01:55:51.704Z,100.00
2022-08-27T01:58:21.813Z,100.00
2022-08-27T02:00:54.196Z,100.00
2022-08-27T02:03:24.071Z,100.00
2022-08-27T02:05:52.073Z,100.00
2022-08-27T02:08:19.558Z,100.00
2022-08-27T02:10:48.364Z,100.00
2022-08-27T02:13:15.556Z,100.00
2022-08-27T02:15:43.815Z,100.00
2022-08-27T02:18:12.204Z,100.00
2022-08-27T02:20:39.202Z,100.00
2022-08-27T02:23:06.520Z,100.00
2022-08-27T02:25:34.086Z,100.00
2022-08-27T02:28:01.871Z,100.00
2022-08-27T02:30:32.052Z,100.00
2022-08-27T02:33:01.038Z,100.00
2022-08-27T02:35:30.262Z,100.00
2022-08-27T02:37:57.436Z,100.00
2022-08-27T02:40:25.561Z,100.00
2022-08-27T02:42:52.431Z,100.00
2022-08-27T02:45:20.796Z,100.00
2022-08-27T02:47:48.585Z,100.00
2022-08-27T02:50:16.417Z,100.00
2022-08-27T02:52:46.467Z,100.00
2022-08-27T02:55:17.119Z,100.00
2022-08-27T02:57:44.794Z,100.00
2022-08-27T03:00:16.666Z,100.00
2022-08-27T03:02:43.592Z,100.00
2022-08-27T03:05:12.728Z,100.00
2022-08-27T03:07:40.314Z,100.00
2022-08-27T03:10:08.832Z,100.00
2022-08-27T03:12:36.445Z,100.00
2022-08-27T03:15:08.514Z,100.00
2022-08-27T03:17:54.499Z,100.00
2022-08-27T03:20:22.771Z,100.00
2022-08-27T03:22:49.722Z,100.00
2022-08-27T03:25:16.898Z,100.00
2022-08-27T03:27:43.712Z,100.00
2022-08-27T03:30:15.901Z,100.00
2022-08-27T03:32:43.398Z,100.00
2022-08-27T03:35:10.493Z,100.00
2022-08-27T03:37:37.303Z,100.00
2022-08-27T03:40:06.063Z,100.00
2022-08-27T03:42:32.831Z,100.00
2022-08-27T03:44:59.549Z,100.00
2022-08-27T03:47:26.608Z,100.00
2022-08-27T03:49:53.671Z,100.00
2022-08-27T03:52:20.924Z,100.00
2022-08-27T03:54:48.816Z,100.00
2022-08-27T03:57:15.545Z,100.00
2022-08-27T03:59:42.317Z,100.00
2022-08-27T04:02:09.459Z,100.00
2022-08-27T04:04:36.810Z,100.00
2022-08-27T04:07:03.806Z,100.00
2022-08-27T04:09:30.590Z,100.00
2022-08-27T04:11:57.569Z,100.00
2022-08-27T04:14:26.915Z,100.00
2022-08-27T04:16:57.722Z,100.00
2022-08-27T04:19:27.998Z,100.00
2022-08-27T04:22:03.127Z,100.00
2022-08-27T04:24:32.277Z,100.00
2022-08-27T04:27:00.834Z,100.00
2022-08-27T04:29:28.545Z,100.00
2022-08-27T04:31:56.688Z,100.00
2022-08-27T04:34:24.125Z,100.00
2022-08-27T04:36:51.284Z,100.00
2022-08-27T04:39:20.575Z,100.00
2022-08-27T04:41:50.502Z,100.00
2022-08-27T04:44:17.276Z,100.00
2022-08-27T04:46:46.935Z,100.00
2022-08-27T04:49:17.383Z,100.00
2022-08-27T04:51:44.201Z,100.00
2022-08-27T04:54:11.246Z,100.00
2022-08-27T04:56:39.198Z,100.00
2022-08-27T04:59:08.237Z,100.00
2022-08-27T05:01:36.489Z,100.00
2022-08-27T05:04:04.021Z,100.00
2022-08-27T05:06:31.321Z,100.00
2022-08-27T05:08:58.216Z,100.00
2022-08-27T05:11:29.702Z,100.00
2022-08-27T05:13:56.579Z,100.00
2022-08-27T05:16:23.641Z,100.00
2022-08-27T05:18:52.219Z,100.00
2022-08-27T05:21:25.485Z,100.00
2022-08-27T05:23:54.354Z,100.00
2022-08-27T05:26:21.918Z,100.00
2022-08-27T05:28:48.704Z,100.00
2022-08-27T05:31:17.034Z,100.00
2022-08-27T05:33:44.665Z,100.00
2022-08-27T05:36:18.465Z,100.00
2022-08-27T05:38:45.268Z,100.00
2022-08-27T05:41:17.945Z,100.00
2022-08-27T05:43:49.873Z,100.00
2022-08-27T05:46:20.460Z,100.00
2022-08-27T05:48:48.564Z,100.00
2022-08-27T05:51:25.591Z,100.00
2022-08-27T05:54:05.611Z,100.00
2022-08-27T05:56:38.054Z,100.00
2022-08-27T05:59:24.346Z,100.00
2022-08-27T06:01:54.277Z,100.00
2022-08-27T06:04:24.040Z,100.00
2022-08-27T06:06:51.912Z,100.00
2022-08-27T06:09:21.473Z,100.00
2022-08-27T06:11:49.098Z,100.00
2022-08-27T06:14:15.990Z,100.00
2022-08-27T06:16:42.987Z,100.00
2022-08-27T06:19:12.231Z,100.00
2022-08-27T06:21:40.696Z,100.00
2022-08-27T06:24:08.558Z,100.00
2022-08-27T06:26:36.398Z,100.00
2022-08-27T06:29:07.588Z,100.00
2022-08-27T06:31:38.744Z,100.00
2022-08-27T06:34:09.705Z,100.00
2022-08-27T06:36:40.011Z,100.00
2022-08-27T06:39:08.319Z,100.00
2022-08-27T06:41:35.323Z,100.00
2022-08-27T06:44:11.781Z,100.00
2022-08-27T06:46:38.976Z,100.00
2022-08-27T06:49:06.708Z,100.00
2022-08-27T06:51:35.587Z,100.00
2022-08-27T06:54:06.434Z,100.00
2022-08-27T06:56:33.505Z,100.00
2022-08-27T06:59:02.845Z,100.00
2022-08-27T07:01:33.152Z,100.00
2022-08-27T07:04:02.133Z,100.00
2022-08-27T07:06:31.701Z,100.00
2022-08-27T07:08:59.301Z,100.00
2022-08-27T07:11:27.049Z,100.00
2022-08-27T07:13:53.903Z,100.00
2022-08-27T07:16:24.065Z,100.00
2022-08-27T07:18:53.216Z,100.00
2022-08-27T07:21:21.069Z,100.00
2022-08-27T07:23:50.041Z,100.00
2022-08-27T07:26:17.897Z,100.00
2022-08-27T07:28:46.583Z,100.00
2022-08-27T07:31:17.109Z,100.00
2022-08-27T07:33:51.420Z,100.00
2022-08-27T07:36:21.047Z,100.00
2022-08-27T07:38:56.725Z,100.00
2022-08-27T07:41:30.977Z,100.00
2022-08-27T07:44:18.332Z,100.00
2022-08-27T07:46:48.341Z,100.00
2022-08-27T07:49:17.379Z,100.00
2022-08-27T07:51:44.867Z,100.00
2022-08-27T07:54:11.876Z,100.00
2022-08-27T07:56:38.753Z,100.00
2022-08-27T07:59:05.518Z,100.00
2022-08-27T08:01:32.788Z,100.00
2022-08-27T08:04:00.183Z,100.00
2022-08-27T08:06:27.085Z,100.00
2022-08-27T08:08:53.927Z,100.00
2022-08-27T08:11:20.982Z,100.00
2022-08-27T08:13:48.301Z,100.00
2022-08-27T08:16:15.685Z,100.00
2022-08-27T08:18:42.724Z,100.00
2022-08-27T08:21:12.675Z,100.00
2022-08-27T08:23:40.660Z,100.00
2022-08-27T08:26:08.428Z,100.00
2022-08-27T08:28:36.694Z,100.00
2022-08-27T08:31:04.283Z,100.00
2022-08-27T08:33:31.724Z,100.00
2022-08-27T08:36:14.941Z,100.00
2022-08-27T08:38:42.547Z,100.00
2022-08-27T08:41:28.016Z,100.00
2022-08-27T08:44:03.473Z,100.00
2022-08-27T08:46:40.035Z,100.00
2022-08-27T08:49:52.942Z,100.00
2022-08-27T08:52:34.806Z,100.00
2022-08-27T08:55:26.300Z,100.00
2022-08-27T08:58:19.525Z,100.00
2022-08-27T09:00:57.674Z,100.00
2022-08-27T09:03:25.710Z,100.00
2022-08-27T09:06:05.528Z,100.00
2022-08-27T09:08:40.655Z,100.00
2022-08-27T09:11:26.417Z,100.00
2022-08-27T09:13:59.792Z,100.00
2022-08-27T09:16:26.977Z,100.00
2022-08-27T09:18:54.319Z,100.00
2022-08-27T09:21:51.711Z,100.00
2022-08-27T09:24:23.072Z,100.00
2022-08-27T09:26:50.454Z,100.00
2022-08-27T09:29:20.990Z,100.00
2022-08-27T09:31:57.313Z,100.00
2022-08-27T09:34:26.413Z,100.00
2022-08-27T09:37:00.887Z,100.00
2022-08-27T09:40:01.862Z,100.00
2022-08-27T09:42:36.100Z,100.00
2022-08-27T09:45:08.526Z,100.00
2022-08-27T09:47:44.766Z,100.00
2022-08-27T09:50:11.741Z,100.00
2022-08-27T09:52:56.838Z,100.00
2022-08-27T09:55:30.762Z,100.00
2022-08-27T09:57:58.437Z,100.00
2022-08-27T10:00:40.425Z,100.00
2022-08-27T10:03:09.176Z,100.00
2022-08-27T10:05:47.489Z,100.00
2022-08-27T10:08:30.190Z,100.00
2022-08-27T10:11:04.484Z,100.00
2022-08-27T10:13:37.948Z,100.00
2022-08-27T10:16:20.111Z,100.00
2022-08-27T10:19:16.805Z,100.00
2022-08-27T10:21:54.318Z,100.00
2022-08-27T10:24:21.125Z,100.00
2022-08-27T10:27:01.912Z,100.00
2022-08-27T10:29:47.031Z,100.00
2022-08-27T10:32:41.732Z,100.00
2022-08-27T10:35:19.813Z,100.00
2022-08-27T10:38:07.691Z,100.00
2022-08-27T10:40:42.623Z,100.00
2022-08-27T10:43:27.469Z,100.00
2022-08-27T10:46:11.019Z,100.00
2022-08-27T10:48:48.970Z,100.00
2022-08-27T10:51:31.142Z,100.00
2022-08-27T10:54:07.922Z,100.00
2022-08-27T10:57:26.239Z,100.00
2022-08-27T11:00:12.280Z,100.00
2022-08-27T11:02:48.132Z,100.00
2022-08-27T11:05:24.525Z,100.00
2022-08-27T11:08:22.064Z,100.00
2022-08-27T11:10:54.285Z,100.00
2022-08-27T11:13:38.588Z,100.00
2022-08-27T11:16:29.157Z,100.00
2022-08-27T11:19:20.927Z,100.00
2022-08-27T11:22:01.321Z,100.00
2022-08-27T11:24:54.246Z,100.00
2022-08-27T11:27:24.043Z,100.00
2022-08-27T11:30:02.042Z,100.00
2022-08-27T11:32:43.914Z,100.00
2022-08-27T11:35:30.928Z,100.00
2022-08-27T11:38:27.644Z,100.00
2022-08-27T11:41:11.040Z,100.00
2022-08-27T11:43:37.954Z,100.00
2022-08-27T11:46:08.702Z,100.00
2022-08-27T11:48:41.751Z,100.00
2022-08-27T11:51:35.825Z,100.00
2022-08-27T11:54:07.189Z,100.00
2022-08-27T11:56:37.010Z,100.00
2022-08-27T11:59:22.972Z,100.00
2022-08-27T12:01:52.634Z,100.00
2022-08-27T12:04:30.367Z,100.00
2022-08-27T12:07:06.360Z,100.00
2022-08-27T12:10:02.693Z,100.00
2022-08-27T12:12:47.507Z,100.00
2022-08-27T12:15:18.816Z,100.00
2022-08-27T12:18:00.277Z,100.00
2022-08-27T12:20:50.181Z,100.00
2022-08-27T12:23:41.073Z,100.00
2022-08-27T12:26:31.791Z,100.00
2022-08-27T12:29:17.453Z,83.63
2022-08-27T12:31:48.270Z,80.11
2022-08-27T12:34:19.363Z,84.77
2022-08-27T12:36:53.486Z,99.32
2022-08-27T12:39:27.148Z,100.00
2022-08-27T12:41:55.787Z,95.08
2022-08-27T12:44:33.040Z,94.77
2022-08-27T12:47:11.952Z,100.00
2022-08-27T12:50:01.165Z,100.00
2022-08-27T12:52:46.628Z,100.00
2022-08-27T12:55:31.046Z,100.00
2022-08-27T12:58:20.095Z,100.00
2022-08-27T13:01:32.290Z,100.00
2022-08-27T13:04:01.127Z,99.47
2022-08-27T13:06:30.545Z,100.00
2022-08-27T13:09:00.045Z,100.00
2022-08-27T13:11:44.082Z,100.00
2022-08-27T13:14:19.919Z,98.49
2022-08-27T13:16:51.602Z,82.42
2022-08-27T13:19:32.410Z,84.46
2022-08-27T13:22:01.461Z,90.17
2022-08-27T13:24:32.693Z,99.70
2022-08-27T13:27:02.386Z,100.00
2022-08-27T13:29:29.776Z,82.59
2022-08-27T13:31:56.742Z,67.62
2022-08-27T13:34:27.600Z,68.12
2022-08-27T13:37:06.377Z,57.81
2022-08-27T13:39:35.744Z,66.82
2022-08-27T13:42:05.799Z,70.82
2022-08-27T13:44:36.761Z,84.68
2022-08-27T13:47:05.379Z,100.00
2022-08-27T13:49:40.044Z,100.00
2022-08-27T13:52:29.256Z,100.00
2022-08-27T13:55:09.389Z,100.00
2022-08-27T13:57:43.884Z,100.00
2022-08-27T14:00:17.608Z,100.00
2022-08-27T14:02:55.375Z,100.00
2022-08-27T14:05:23.130Z,100.00
2022-08-27T14:07:53.402Z,100.00
2022-08-27T14:10:37.636Z,100.00
2022-08-27T14:13:12.913Z,100.00
2022-08-27T14:15:45.646Z,100.00
2022-08-27T14:18:57.303Z,100.00
2022-08-27T14:21:20.369Z,100.00
2022-08-27T14:23:47.579Z,99.37
2022-08-27T14:26:16.420Z,96.22
2022-08-27T14:28:43.469Z,98.16
2022-08-27T14:31:11.738Z,100.00
2022-08-27T14:33:38.734Z,100.00
2022-08-27T14:36:06.712Z,100.00
2022-08-27T14:38:35.908Z,100.00
2022-08-27T14:41:03.497Z,100.00
2022-08-27T14:43:34.690Z,100.00
2022-08-27T14:46:03.532Z,100.00
2022-08-27T14:48:33.647Z,100.00
2022-08-27T14:51:07.656Z,100.00
2022-08-27T14:53:34.452Z,100.00
2022-08-27T14:56:01.824Z,100.00
2022-08-27T14:58:29.525Z,100.00
2022-08-27T15:00:57.734Z,100.00
2022-08-27T15:03:25.567Z,100.00
2022-08-27T15:05:54.935Z,100.00
2022-08-27T15:08:27.440Z,100.00
2022-08-27T15:10:57.184Z,100.00
2022-08-27T15:13:24.298Z,100.00
2022-08-27T15:15:52.360Z,100.00
2022-08-27T15:18:19.722Z,100.00
2022-08-27T15:20:46.965Z,100.00
2022-08-27T15:23:15.817Z,100.00
2022-08-27T15:25:45.711Z,100.00
2022-08-27T15:28:12.803Z,100.00
2022-08-27T15:30:39.744Z,97.12
2022-08-27T15:33:06.807Z,100.00
2022-08-27T15:35:34.400Z,100.00
2022-08-27T15:38:01.710Z,100.00
2022-08-27T15:40:32.068Z,100.00
2022-08-27T15:43:02.724Z,100.00
2022-08-27T15:45:31.487Z,100.00
2022-08-27T15:47:59.326Z,100.00
2022-08-27T15:50:28.605Z,100.00
2022-08-27T15:52:59.044Z,100.00
2022-08-27T15:55:29.876Z,100.00
2022-08-27T15:57:57.483Z,100.00
2022-08-27T16:00:25.035Z,100.00
2022-08-27T16:02:53.176Z,100.00
2022-08-27T16:05:22.296Z,100.00
2022-08-27T16:07:49.162Z,100.00
2022-08-27T16:10:16.714Z,100.00
2022-08-27T16:12:44.498Z,100.00
2022-08-27T16:15:11.747Z,100.00
2022-08-27T16:17:39.279Z,100.00
2022-08-27T16:20:09.117Z,100.00
2022-08-27T16:22:36.244Z,100.00
2022-08-27T16:25:04.452Z,100.00
2022-08-27T16:27:31.387Z,100.00
2022-08-27T16:29:58.212Z,100.00
2022-08-27T16:32:25.837Z,100.00
2022-08-27T16:34:55.609Z,100.00
2022-08-27T16:37:24.549Z,100.00
2022-08-27T16:39:51.409Z,100.00
2022-08-27T16:42:18.377Z,100.00
2022-08-27T16:44:45.402Z,100.00
2022-08-27T16:47:12.364Z,100.00
2022-08-27T16:49:57.584Z,100.00
2022-08-27T16:52:24.325Z,100.00
2022-08-27T16:54:52.255Z,100.00
2022-08-27T16:57:19.214Z,100.00
2022-08-27T16:59:46.018Z,100.00
2022-08-27T17:02:34.868Z,100.00
2022-08-27T17:05:17.731Z,100.00
2022-08-27T17:07:49.378Z,100.00
2022-08-27T17:10:18.323Z,100.00
2022-08-27T17:12:47.129Z,100.00
2022-08-27T17:15:18.653Z,100.00
2022-08-27T17:17:46.019Z,100.00
2022-08-27T17:20:15.190Z,100.00
2022-08-27T17:22:42.304Z,100.00
2022-08-27T17:25:09.957Z,100.00
2022-08-27T17:27:36.800Z,100.00
2022-08-27T17:30:04.574Z,100.00
2022-08-27T17:32:36.912Z,100.00
2022-08-27T17:35:06.574Z,100.00
2022-08-27T17:37:33.733Z,100.00
2022-08-27T17:40:01.063Z,100.00
2022-08-27T17:42:29.618Z,100.00
2022-08-27T17:44:57.021Z,100.00
2022-08-27T17:47:24.996Z,100.00
2022-08-27T17:49:52.707Z,100.00
2022-08-27T17:52:20.202Z,100.00
2022-08-27T17:54:51.016Z,100.00
2022-08-27T17:57:22.384Z,100.00
2022-08-27T17:59:49.985Z,100.00
2022-08-27T18:02:50.815Z,100.00
2022-08-27T18:05:19.893Z,100.00
2022-08-27T18:07:47.373Z,100.00
2022-08-27T18:10:17.628Z,100.00
2022-08-27T18:12:46.024Z,100.00
2022-08-27T18:15:20.511Z,100.00
2022-08-27T18:17:48.496Z,100.00
2022-08-27T18:20:21.843Z,100.00
2022-08-27T18:22:49.191Z,100.00
2022-08-27T18:25:18.004Z,100.00
2022-08-27T18:27:49.001Z,100.00
2022-08-27T18:30:16.369Z,100.00
2022-08-27T18:32:43.257Z,100.00
2022-08-27T18:35:18.029Z,100.00
2022-08-27T18:37:45.007Z,100.00
2022-08-27T18:40:13.308Z,100.00
2022-08-27T18:42:41.131Z,100.00
2022-08-27T18:45:22.954Z,100.00
2022-08-27T18:47:51.660Z,100.00
2022-08-27T18:50:19.488Z,100.00
2022-08-27T18:52:48.397Z,100.00
2022-08-27T18:55:18.716Z,100.00
2022-08-27T18:57:45.702Z,100.00
2022-08-27T19:00:14.703Z,100.00
2022-08-27T19:02:42.845Z,100.00
2022-08-27T19:05:10.767Z,100.00
2022-08-27T19:07:37.906Z,100.00
2022-08-27T19:10:06.569Z,100.00
2022-08-27T19:12:33.354Z,100.00
2022-08-27T19:15:04.143Z,100.00
2022-08-27T19:17:34.844Z,100.00
2022-08-27T19:20:02.369Z,100.00
2022-08-27T19:22:31.164Z,100.00
2022-08-27T19:24:58.763Z,100.00
2022-08-27T19:27:29.293Z,100.00
2022-08-27T19:29:56.542Z,100.00
2022-08-27T19:32:23.396Z,100.00
2022-08-27T19:34:50.337Z,100.00
2022-08-27T19:37:24.838Z,100.00
2022-08-27T19:39:52.853Z,100.00
2022-08-27T19:42:19.862Z,100.00
2022-08-27T19:44:47.423Z,100.00
2022-08-27T19:47:18.911Z,100.00
2022-08-27T19:49:49.739Z,100.00
2022-08-27T19:52:16.626Z,100.00
2022-08-27T19:55:09.840Z,100.00
2022-08-27T19:57:30.230Z,100.00
2022-08-27T19:59:57.079Z,100.00
2022-08-27T20:02:24.364Z,100.00
2022-08-27T20:05:14.214Z,100.00
2022-08-27T20:07:38.072Z,100.00
2022-08-27T20:10:08.323Z,100.00
2022-08-27T20:12:36.578Z,100.00
2022-08-27T20:15:05.641Z,100.00
2022-08-27T20:17:32.772Z,100.00
2022-08-27T20:19:59.892Z,100.00
2022-08-27T20:22:26.958Z,100.00
2022-08-27T20:24:53.833Z,100.00
2022-08-27T20:27:20.713Z,100.00
2022-08-27T20:29:47.727Z,100.00
2022-08-27T20:32:14.876Z,100.00
2022-08-27T20:34:41.730Z,100.00
2022-08-27T20:37:08.667Z,100.00
2022-08-27T20:39:36.102Z,100.00
2022-08-27T20:42:03.404Z,100.00
2022-08-27T20:44:31.530Z,100.00
2022-08-27T20:47:00.530Z,100.00
2022-08-27T20:49:28.002Z,100.00
2022-08-27T20:52:02.873Z,100.00
2022-08-27T20:54:32.099Z,100.00
2022-08-27T20:56:59.091Z,100.00
2022-08-27T20:59:44.929Z,100.00
2022-08-27T21:02:13.865Z,100.00
2022-08-27T21:04:45.941Z,100.00
2022-08-27T21:07:13.906Z,100.00
2022-08-27T21:09:55.678Z,100.00
2022-08-27T21:12:28.905Z,100.00
2022-08-27T21:14:56.647Z,100.00
2022-08-27T21:17:27.093Z,100.00
2022-08-27T21:19:54.309Z,100.00
2022-08-27T21:22:22.638Z,100.00
2022-08-27T21:24:49.880Z,100.00
2022-08-27T21:27:18.519Z,100.00
2022-08-27T21:29:45.761Z,100.00
2022-08-27T21:32:14.283Z,100.00
2022-08-27T21:34:41.978Z,100.00
2022-08-27T21:37:11.068Z,100.00
2022-08-27T21:39:38.772Z,100.00
2022-08-27T21:42:05.868Z,100.00
2022-08-27T21:44:32.704Z,100.00
2022-08-27T21:47:00.681Z,100.00
2022-08-27T21:49:28.068Z,100.00
2022-08-27T21:51:54.869Z,100.00
2022-08-27T21:54:26.021Z,100.00
2022-08-27T21:56:53.017Z,100.00
2022-08-27T21:59:20.051Z,100.00
2022-08-27T22:01:47.010Z,100.00
2022-08-27T22:04:14.171Z,100.00
2022-08-27T22:06:40.958Z,100.00
2022-08-27T22:09:07.885Z,100.00
2022-08-27T22:11:34.921Z,100.00
2022-08-27T22:14:01.707Z,100.00
2022-08-27T22:16:29.254Z,100.00
2022-08-27T22:18:58.950Z,100.00
2022-08-27T22:21:26.788Z,100.00
2022-08-27T22:23:53.615Z,100.00
2022-08-27T22:26:21.079Z,100.00
2022-08-27T22:28:48.712Z,100.00
2022-08-27T22:31:15.763Z,100.00
2022-08-27T22:33:42.927Z,100.00
2022-08-27T22:36:10.044Z,100.00
2022-08-27T22:38:37.040Z,100.00
2022-08-27T22:41:05.994Z,100.00
2022-08-27T22:43:34.190Z,100.00
2022-08-27T22:46:01.178Z,100.00
2022-08-27T22:48:27.970Z,100.00
2022-08-27T22:50:54.778Z,100.00
2022-08-27T22:53:21.568Z,100.00
2022-08-27T22:55:50.345Z,100.00
2022-08-27T22:58:18.118Z,100.00
2022-08-27T23:00:51.922Z,100.00
2022-08-27T23:03:20.249Z,100.00
2022-08-27T23:05:47.717Z,100.00
2022-08-27T23:08:15.321Z,100.00
2022-08-27T23:10:43.373Z,100.00
2022-08-27T23:13:11.393Z,100.00
2022-08-27T23:15:39.088Z,100.00
2022-08-27T23:18:06.064Z,100.00
2022-08-27T23:20:33.076Z,100.00
2022-08-27T23:23:00.025Z,100.00
2022-08-27T23:25:45.689Z,100.00
2022-08-27T23:28:15.156Z,100.00
2022-08-27T23:30:44.266Z,100.00
2022-08-27T23:33:11.973Z,100.00
2022-08-27T23:35:38.920Z,100.00
2022-08-27T23:38:05.818Z,100.00
2022-08-27T23:40:32.657Z,100.00
2022-08-27T23:42:59.559Z,100.00
2022-08-27T23:45:26.967Z,100.00
2022-08-27T23:47:53.885Z,100.00
2022-08-27T23:50:24.679Z,100.00
2022-08-27T23:53:01.764Z,100.00
2022-08-27T23:55:29.112Z,100.00
2022-08-27T23:57:57.541Z,100.00
